createdAt,value
2019-04-14T00:00:14.333Z,54.47
2019-04-14T00:02:44.708Z,49.30
2019-04-14T00:05:14.972Z,50.20
2019-04-14T00:07:43.481Z,47.10
2019-04-14T00:10:13.821Z,50.40
2019-04-14T00:12:42.691Z,48.97
2019-04-14T00:15:25.725Z,49.43
2019-04-14T00:17:43.514Z,47.73
2019-04-14T00:20:12.242Z,48.53
2019-04-14T00:22:40.684Z,48.03
2019-04-14T00:25:09.251Z,47.87
2019-04-14T00:27:38.802Z,47.27
2019-04-14T00:30:08.053Z,51.00
2019-04-14T00:32:38.119Z,47.60
2019-04-14T00:35:14.634Z,50.60
2019-04-14T00:38:02.352Z,48.50
2019-04-14T00:40:33.005Z,49.67
2019-04-14T00:43:05.614Z,50.20
2019-04-14T00:45:43.092Z,47.20
2019-04-14T00:48:11.729Z,47.60
2019-04-14T00:50:38.683Z,50.50
2019-04-14T00:53:07.743Z,50.43
2019-04-14T00:55:36.161Z,48.27
2019-04-14T00:58:05.904Z,46.97
2019-04-14T01:00:34.437Z,48.33
2019-04-14T01:03:02.851Z,51.27
2019-04-14T01:05:32.872Z,49.00
2019-04-14T01:08:01.409Z,48.13
2019-04-14T01:10:30.084Z,49.13
2019-04-14T01:12:58.606Z,48.70
2019-04-14T01:15:27.045Z,60.80
2019-04-14T01:17:55.441Z,47.37
2019-04-14T01:20:23.873Z,47.37
2019-04-14T01:22:53.164Z,48.80
2019-04-14T01:25:21.697Z,47.67
2019-04-14T01:27:50.113Z,47.60
2019-04-14T01:30:19.781Z,47.37
2019-04-14T01:32:48.387Z,49.60
2019-04-14T01:35:17.997Z,50.00
2019-04-14T01:37:46.603Z,48.70
2019-04-14T01:40:16.289Z,49.97
2019-04-14T01:42:44.894Z,49.00
2019-04-14T01:45:15.026Z,48.07
2019-04-14T01:47:44.508Z,47.63
2019-04-14T01:50:13.186Z,48.77
2019-04-14T01:52:43.673Z,52.27
2019-04-14T01:55:30.906Z,49.70
2019-04-14T01:58:05.296Z,49.27
2019-04-14T02:00:51.282Z,49.70
2019-04-14T02:03:19.930Z,48.00
2019-04-14T02:05:49.572Z,51.97
2019-04-14T02:08:18.194Z,55.80
2019-04-14T02:10:47.821Z,49.37
2019-04-14T02:13:16.416Z,44.90
2019-04-14T02:15:44.848Z,49.00
2019-04-14T02:18:14.291Z,49.70
2019-04-14T02:20:42.865Z,49.97
2019-04-14T02:23:12.448Z,47.33
2019-04-14T02:25:41.104Z,51.07
2019-04-14T02:28:09.488Z,49.30
2019-04-14T02:30:44.416Z,53.47
2019-04-14T02:36:19.972Z,47.87
2019-04-14T02:41:12.982Z,50.60
2019-04-14T02:46:02.776Z,49.73
2019-04-14T02:51:23.565Z,49.33
2019-04-14T02:56:11.564Z,49.47
2019-04-14T02:58:48.262Z,48.90
2019-04-14T03:01:07.018Z,50.30
2019-04-14T03:06:05.323Z,48.53
2019-04-14T03:08:47.700Z,50.30
2019-04-14T03:13:35.149Z,50.00
2019-04-14T03:19:01.974Z,47.67
2019-04-14T03:21:29.760Z,49.17
2019-04-14T03:24:03.491Z,51.80
2019-04-14T03:26:35.641Z,50.37
2019-04-14T03:29:08.110Z,51.20
2019-04-14T03:32:04.852Z,50.03
2019-04-14T03:34:30.554Z,49.90
2019-04-14T03:39:17.587Z,49.20
2019-04-14T03:41:38.659Z,49.27
2019-04-14T03:44:09.832Z,49.77
2019-04-14T03:46:43.385Z,51.33
2019-04-14T03:51:44.489Z,47.83
2019-04-14T03:54:20.181Z,49.43
2019-04-14T03:56:37.879Z,48.67
2019-04-14T03:59:06.489Z,49.43
2019-04-14T04:01:34.858Z,46.97
2019-04-14T04:04:03.359Z,47.37
2019-04-14T04:06:31.758Z,49.30
2019-04-14T04:09:00.188Z,47.40
2019-04-14T04:11:28.601Z,46.40
2019-04-14T04:13:57.102Z,46.30
2019-04-14T04:16:27.160Z,46.70
2019-04-14T04:19:04.074Z,50.40
2019-04-14T04:21:46.427Z,45.60
2019-04-14T04:24:17.067Z,50.57
2019-04-14T04:26:49.833Z,49.63
2019-04-14T04:29:20.172Z,47.00
2019-04-14T04:31:53.187Z,51.97
2019-04-14T04:34:27.263Z,48.93
2019-04-14T04:37:12.792Z,49.60
2019-04-14T04:39:43.294Z,50.63
2019-04-14T04:42:11.749Z,46.47
2019-04-14T04:44:40.193Z,45.80
2019-04-14T04:47:09.803Z,49.80
2019-04-14T04:49:38.529Z,47.33
2019-04-14T04:52:09.885Z,47.13
2019-04-14T04:54:37.069Z,50.37
2019-04-14T04:57:06.660Z,46.13
2019-04-14T04:59:36.590Z,44.17
2019-04-14T05:02:05.182Z,44.93
2019-04-14T05:04:35.024Z,45.70
2019-04-14T05:07:03.723Z,47.23
2019-04-14T05:09:36.541Z,45.77
2019-04-14T05:12:17.444Z,46.70
2019-04-14T05:15:03.577Z,47.20
2019-04-14T05:17:34.281Z,59.73
2019-04-14T05:20:03.174Z,45.73
2019-04-14T05:22:31.760Z,45.43
2019-04-14T05:25:01.352Z,46.30
2019-04-14T05:27:29.976Z,47.07
2019-04-14T05:29:58.379Z,46.60
2019-04-14T05:32:26.819Z,44.53
2019-04-14T05:34:56.472Z,45.20
2019-04-14T05:37:25.026Z,43.87
2019-04-14T05:39:53.424Z,46.70
2019-04-14T05:42:25.134Z,42.13
2019-04-14T05:44:51.988Z,44.30
2019-04-14T05:47:20.422Z,45.53
2019-04-14T05:49:52.731Z,46.07
2019-04-14T05:52:18.984Z,53.60
2019-04-14T05:54:47.389Z,45.30
2019-04-14T05:57:15.822Z,43.70
2019-04-14T05:59:44.221Z,42.47
2019-04-14T06:02:13.671Z,45.23
2019-04-14T06:04:42.259Z,44.30
2019-04-14T06:07:10.700Z,47.70
2019-04-14T06:09:39.109Z,45.23
2019-04-14T06:12:07.543Z,44.83
2019-04-14T06:14:35.945Z,44.33
2019-04-14T06:17:04.376Z,45.80
2019-04-14T06:19:39.049Z,47.97
2019-04-14T06:22:02.944Z,46.67
2019-04-14T06:24:31.347Z,41.27
2019-04-14T06:26:59.847Z,45.93
2019-04-14T06:29:28.254Z,43.93
2019-04-14T06:32:07.436Z,44.77
2019-04-14T06:34:37.479Z,44.60
2019-04-14T06:37:16.322Z,45.00
2019-04-14T06:39:55.382Z,41.57
2019-04-14T06:42:23.810Z,45.60
2019-04-14T06:44:52.218Z,45.90
2019-04-14T06:47:20.648Z,46.23
2019-04-14T06:49:49.560Z,44.30
2019-04-14T06:52:18.058Z,45.97
2019-04-14T06:54:46.470Z,44.40
2019-04-14T06:57:14.912Z,42.70
2019-04-14T06:59:43.314Z,45.63
2019-04-14T07:02:11.746Z,43.00
2019-04-14T07:04:40.151Z,44.10
2019-04-14T07:07:08.584Z,44.23
2019-04-14T07:09:36.995Z,44.97
2019-04-14T07:12:05.582Z,46.00
2019-04-14T07:14:34.125Z,43.27
2019-04-14T07:17:02.535Z,47.23
2019-04-14T07:19:30.972Z,51.33
2019-04-14T07:21:59.435Z,46.47
2019-04-14T07:24:27.903Z,45.93
2019-04-14T07:26:56.312Z,48.63
2019-04-14T07:29:26.380Z,44.80
2019-04-14T07:32:11.336Z,45.17
2019-04-14T07:34:44.340Z,46.77
2019-04-14T07:37:20.299Z,52.80
2019-04-14T07:39:50.451Z,48.70
2019-04-14T07:42:23.072Z,68.03
2019-04-14T07:45:09.312Z,49.03
2019-04-14T07:47:54.413Z,51.97
2019-04-14T07:50:33.228Z,47.20
2019-04-14T07:53:19.690Z,47.63
2019-04-14T07:55:49.869Z,49.77
2019-04-14T07:58:19.937Z,47.30
2019-04-14T08:00:55.478Z,45.50
2019-04-14T08:03:41.911Z,47.43
2019-04-14T08:06:10.311Z,45.60
2019-04-14T08:08:38.748Z,46.73
2019-04-14T08:11:07.147Z,47.30
2019-04-14T08:13:35.587Z,44.13
2019-04-14T08:16:03.997Z,49.60
2019-04-14T08:18:32.462Z,42.83
2019-04-14T08:21:00.872Z,48.87
2019-04-14T08:23:29.275Z,43.03
2019-04-14T08:25:57.711Z,44.70
2019-04-14T08:28:26.115Z,46.90
2019-04-14T08:30:54.539Z,45.63
2019-04-14T08:33:22.951Z,44.23
2019-04-14T08:35:51.377Z,44.30
2019-04-14T08:38:19.786Z,47.67
2019-04-14T08:40:48.221Z,42.53
2019-04-14T08:43:18.260Z,43.10
2019-04-14T08:45:57.238Z,47.73
2019-04-14T08:48:36.377Z,44.23
2019-04-14T08:51:06.622Z,47.57
2019-04-14T08:53:52.865Z,46.20
2019-04-14T08:56:28.756Z,44.80
2019-04-14T08:59:01.818Z,43.30
2019-04-14T09:01:37.891Z,50.43
2019-04-14T09:04:11.016Z,46.43
2019-04-14T09:06:41.056Z,44.37
2019-04-14T09:09:11.104Z,44.20
2019-04-14T09:11:44.131Z,43.17
2019-04-14T09:14:12.549Z,43.07
2019-04-14T09:16:40.975Z,42.93
2019-04-14T09:19:09.388Z,49.97
2019-04-14T09:21:37.814Z,43.90
2019-04-14T09:24:06.294Z,45.30
2019-04-14T09:26:34.731Z,48.30
2019-04-14T09:29:03.209Z,47.90
2019-04-14T09:31:31.639Z,44.07
2019-04-14T09:34:00.043Z,46.43
2019-04-14T09:36:28.478Z,45.07
2019-04-14T09:38:56.889Z,43.77
2019-04-14T09:41:25.315Z,45.33
2019-04-14T09:43:53.723Z,48.30
2019-04-14T09:46:22.160Z,47.80
2019-04-14T09:48:50.582Z,43.27
2019-04-14T09:51:19.019Z,47.80
2019-04-14T09:53:47.417Z,44.50
2019-04-14T09:56:15.867Z,44.67
2019-04-14T09:58:44.353Z,45.57
2019-04-14T10:01:12.791Z,45.10
2019-04-14T10:03:41.191Z,46.17
2019-04-14T10:06:09.704Z,46.87
2019-04-14T10:08:38.182Z,43.97
2019-04-14T10:11:06.684Z,44.67
2019-04-14T10:13:35.092Z,44.50
2019-04-14T10:16:03.505Z,44.50
2019-04-14T10:18:31.934Z,44.60
2019-04-14T10:21:00.338Z,45.63
2019-04-14T10:23:28.772Z,44.17
2019-04-14T10:25:57.177Z,47.70
2019-04-14T10:28:25.620Z,45.07
2019-04-14T10:30:54.028Z,43.80
2019-04-14T10:33:22.457Z,45.07
2019-04-14T10:35:50.884Z,45.40
2019-04-14T10:38:19.316Z,46.70
2019-04-14T10:40:47.720Z,50.40
2019-04-14T10:43:16.154Z,51.10
2019-04-14T10:45:44.563Z,46.33
2019-04-14T10:48:12.994Z,46.20
2019-04-14T10:50:41.397Z,46.17
2019-04-14T10:53:09.829Z,48.53
2019-04-14T10:55:38.231Z,46.10
2019-04-14T10:58:06.732Z,47.50
2019-04-14T11:00:35.132Z,49.37
2019-04-14T11:03:03.627Z,47.57
2019-04-14T11:05:33.661Z,48.43
2019-04-14T11:08:02.099Z,49.30
2019-04-14T11:10:30.511Z,49.63
2019-04-14T11:12:59.023Z,49.17
2019-04-14T11:15:27.430Z,49.20
2019-04-14T11:17:55.938Z,49.47
2019-04-14T11:20:24.406Z,48.63
2019-04-14T11:23:02.765Z,48.13
2019-04-14T11:25:23.181Z,46.30
2019-04-14T11:27:51.579Z,49.33
2019-04-14T11:30:21.651Z,48.00
2019-04-14T11:32:57.638Z,46.93
2019-04-14T11:35:27.721Z,50.63
2019-04-14T11:38:12.628Z,52.93
2019-04-14T11:40:45.639Z,46.63
2019-04-14T11:43:14.044Z,49.27
2019-04-14T11:45:42.545Z,51.30
2019-04-14T11:48:10.956Z,47.73
2019-04-14T11:50:39.397Z,49.73
2019-04-14T11:53:07.874Z,47.70
2019-04-14T11:55:36.310Z,47.07
2019-04-14T11:58:04.776Z,49.03
2019-04-14T12:00:37.664Z,46.20
2019-04-14T12:03:22.836Z,51.57
2019-04-14T12:06:09.167Z,46.30
2019-04-14T12:08:54.545Z,46.90
2019-04-14T12:11:22.951Z,46.57
2019-04-14T12:13:51.431Z,48.17
2019-04-14T12:16:19.841Z,47.53
2019-04-14T12:18:48.269Z,47.47
2019-04-14T12:21:16.699Z,47.77
2019-04-14T12:23:45.096Z,48.30
2019-04-14T12:26:13.535Z,49.40
2019-04-14T12:28:42.697Z,45.83
2019-04-14T12:31:11.421Z,47.87
2019-04-14T12:33:39.821Z,47.77
2019-04-14T12:36:11.438Z,49.43
2019-04-14T12:38:39.831Z,46.67
2019-04-14T12:41:10.544Z,50.20
2019-04-14T12:43:43.355Z,53.73
2019-04-14T12:46:16.106Z,48.00
2019-04-14T12:48:54.766Z,48.70
2019-04-14T12:51:24.843Z,49.83
2019-04-14T12:53:53.247Z,47.77
2019-04-14T12:56:23.318Z,51.27
2019-04-14T12:58:56.299Z,47.53
2019-04-14T13:01:26.371Z,50.13
2019-04-14T13:03:54.768Z,50.40
2019-04-14T13:06:23.196Z,50.30
2019-04-14T13:08:51.598Z,48.50
2019-04-14T13:11:20.100Z,48.70
2019-04-14T13:13:48.502Z,52.53
2019-04-14T13:16:16.939Z,48.07
2019-04-14T13:18:45.337Z,52.47
2019-04-14T13:21:13.767Z,50.23
2019-04-14T13:23:42.166Z,50.63
2019-04-14T13:26:10.596Z,47.00
2019-04-14T13:28:39.002Z,48.00
2019-04-14T13:31:07.435Z,47.60
2019-04-14T13:33:35.842Z,49.50
2019-04-14T13:36:04.444Z,48.53
2019-04-14T13:38:32.844Z,52.67
2019-04-14T13:41:01.274Z,48.27
2019-04-14T13:43:29.683Z,49.30
2019-04-14T13:45:59.889Z,52.97
2019-04-14T13:48:28.297Z,50.87
2019-04-14T13:50:56.721Z,50.40
2019-04-14T13:53:25.211Z,50.90
2019-04-14T13:55:53.639Z,50.27
2019-04-14T13:58:22.077Z,50.20
2019-04-14T14:00:50.479Z,50.60
2019-04-14T14:03:18.921Z,49.93
2019-04-14T14:05:47.320Z,50.37
2019-04-14T14:08:15.756Z,50.70
2019-04-14T14:10:44.156Z,49.30
2019-04-14T14:13:23.397Z,52.53
2019-04-14T14:16:05.419Z,47.97
2019-04-14T14:18:35.481Z,49.60
2019-04-14T14:21:05.535Z,52.20
2019-04-14T14:23:38.402Z,50.77
2019-04-14T14:26:08.427Z,52.70
2019-04-14T14:28:38.658Z,49.80
2019-04-14T14:31:06.999Z,49.43
2019-04-14T14:33:35.503Z,48.33
2019-04-14T14:36:03.904Z,50.30
2019-04-14T14:38:32.343Z,50.93
2019-04-14T14:41:02.386Z,48.83
2019-04-14T14:43:30.820Z,51.63
2019-04-14T14:46:00.861Z,53.17
2019-04-14T14:48:33.845Z,52.40
2019-04-14T14:51:03.889Z,50.63
2019-04-14T14:53:32.324Z,49.83
2019-04-14T14:56:00.726Z,51.27
2019-04-14T14:58:29.173Z,51.00
2019-04-14T15:00:57.566Z,48.97
2019-04-14T15:03:25.998Z,54.43
2019-04-14T15:05:54.406Z,50.80
2019-04-14T15:08:22.838Z,49.77
2019-04-14T15:10:51.238Z,50.87
2019-04-14T15:13:19.682Z,55.07
2019-04-14T15:15:48.156Z,52.10
2019-04-14T15:18:16.594Z,50.83
2019-04-14T15:20:44.998Z,49.17
2019-04-14T15:23:24.285Z,50.87
2019-04-14T15:25:43.563Z,51.07
2019-04-14T15:28:12.007Z,51.40
2019-04-14T15:30:40.398Z,47.97
2019-04-14T15:33:08.828Z,54.57
2019-04-14T15:35:37.231Z,51.47
2019-04-14T15:38:05.735Z,48.90
2019-04-14T15:40:34.137Z,51.17
2019-04-14T15:43:02.628Z,52.87
2019-04-14T15:45:31.025Z,49.20
2019-04-14T15:47:59.423Z,49.30
2019-04-14T15:50:27.859Z,48.90
2019-04-14T15:52:56.259Z,50.90
2019-04-14T15:55:24.691Z,54.53
2019-04-14T15:57:57.443Z,53.23
2019-04-14T16:00:27.583Z,46.17
2019-04-14T16:03:13.638Z,47.80
2019-04-14T16:05:52.245Z,44.63
2019-04-14T16:08:27.984Z,45.30
2019-04-14T16:11:00.487Z,44.87
2019-04-14T16:13:33.467Z,45.03
2019-04-14T16:16:12.447Z,47.40
2019-04-14T16:19:00.577Z,45.77
2019-04-14T16:21:29.005Z,43.10
2019-04-14T16:23:57.406Z,43.00
2019-04-14T16:26:30.052Z,42.73
2019-04-14T16:29:15.223Z,44.60
2019-04-14T16:31:45.294Z,43.00
2019-04-14T16:34:24.575Z,44.10
2019-04-14T16:36:54.187Z,45.40
2019-04-14T16:39:22.587Z,44.40
2019-04-14T16:41:51.090Z,48.70
2019-04-14T16:44:19.502Z,47.07
2019-04-14T16:46:48.202Z,43.53
2019-04-14T16:49:16.605Z,44.07
2019-04-14T16:51:55.167Z,44.93
2019-04-14T16:54:31.126Z,46.30
2019-04-14T16:57:17.091Z,42.70
2019-04-14T16:59:45.489Z,44.17
2019-04-14T17:02:14.070Z,43.60
2019-04-14T17:04:42.480Z,42.37
2019-04-14T17:07:10.907Z,47.03
2019-04-14T17:09:39.310Z,43.90
2019-04-14T17:12:07.808Z,45.73
2019-04-14T17:14:37.851Z,42.97
2019-04-14T17:17:24.079Z,45.67
2019-04-14T17:19:57.038Z,46.33
2019-04-14T17:22:31.897Z,44.20
2019-04-14T17:25:18.462Z,45.23
2019-04-14T17:27:50.957Z,47.07
2019-04-14T17:30:21.066Z,45.40
2019-04-14T17:32:54.030Z,42.93
2019-04-14T17:35:32.831Z,42.17
2019-04-14T17:38:06.030Z,45.87
2019-04-14T17:40:41.973Z,45.07
2019-04-14T17:43:28.186Z,46.27
2019-04-14T17:46:16.022Z,50.10
2019-04-14T17:48:46.092Z,46.70
2019-04-14T17:51:19.073Z,49.10
2019-04-14T17:54:05.033Z,43.90
2019-04-14T17:56:37.650Z,45.27
2019-04-14T17:59:13.663Z,47.93
2019-04-14T18:01:52.749Z,48.90
2019-04-14T18:04:25.556Z,45.67
2019-04-14T18:07:11.853Z,49.93
2019-04-14T18:09:56.943Z,46.47
2019-04-14T18:12:32.609Z,43.90
2019-04-14T18:15:05.722Z,49.07
2019-04-14T18:17:35.823Z,46.53
2019-04-14T18:20:08.331Z,46.40
2019-04-14T18:22:36.740Z,46.53
2019-04-14T18:25:07.564Z,45.40
2019-04-14T18:27:37.632Z,47.10
2019-04-14T18:30:17.350Z,45.97
2019-04-14T18:33:03.551Z,48.83
2019-04-14T18:35:33.669Z,50.00
2019-04-14T18:38:12.574Z,46.77
2019-04-14T18:40:51.291Z,48.43
2019-04-14T18:43:21.336Z,55.73
2019-04-14T18:46:07.425Z,44.00
2019-04-14T18:48:37.472Z,47.00
2019-04-14T18:51:07.551Z,46.67
2019-04-14T18:53:37.610Z,47.40
2019-04-14T18:56:16.854Z,49.00
2019-04-14T18:58:49.960Z,48.60
2019-04-14T19:01:22.726Z,44.07
2019-04-14T19:03:51.139Z,45.33
2019-04-14T19:06:19.575Z,48.90
2019-04-14T19:08:47.990Z,47.73
2019-04-14T19:11:18.075Z,47.70
2019-04-14T19:13:51.047Z,43.13
2019-04-14T19:16:39.268Z,45.20
2019-04-14T19:19:04.148Z,43.10
2019-04-14T19:21:32.826Z,47.17
2019-04-14T19:24:01.227Z,42.47
2019-04-14T19:26:29.723Z,42.90
2019-04-14T19:28:58.138Z,44.47
2019-04-14T19:31:26.564Z,44.60
2019-04-14T19:33:54.986Z,43.17
2019-04-14T19:36:23.380Z,42.17
2019-04-14T19:38:51.814Z,42.33
2019-04-14T19:41:20.228Z,42.50
2019-04-14T19:43:48.657Z,49.80
2019-04-14T19:46:17.131Z,40.70
2019-04-14T19:48:45.637Z,40.90
2019-04-14T19:51:14.042Z,41.97
2019-04-14T19:53:42.478Z,41.03
2019-04-14T19:56:10.879Z,40.17
2019-04-14T19:58:39.379Z,41.30
2019-04-14T20:01:07.864Z,43.87
2019-04-14T20:03:36.296Z,45.10
2019-04-14T20:06:05.036Z,42.10
2019-04-14T20:08:33.463Z,41.77
2019-04-14T20:11:01.937Z,40.37
2019-04-14T20:13:32.000Z,40.90
2019-04-14T20:16:17.283Z,40.70
2019-04-14T20:19:10.262Z,41.30
2019-04-14T20:21:51.852Z,40.20
2019-04-14T20:24:21.932Z,40.90
2019-04-14T20:26:51.972Z,41.37
2019-04-14T20:29:24.570Z,39.60
2019-04-14T20:31:54.613Z,40.77
2019-04-14T20:34:23.116Z,42.43
2019-04-14T20:36:51.538Z,41.40
2019-04-14T20:39:19.971Z,44.70
2019-04-14T20:41:48.379Z,43.23
2019-04-14T20:44:16.950Z,45.13
2019-04-14T20:46:45.360Z,44.30
2019-04-14T20:49:13.773Z,43.10
2019-04-14T20:51:42.285Z,42.23
2019-04-14T20:54:10.796Z,41.33
2019-04-14T20:56:39.197Z,40.43
2019-04-14T20:59:07.673Z,41.80
2019-04-14T21:01:37.783Z,41.03
2019-04-14T21:04:10.619Z,43.87
2019-04-14T21:06:49.787Z,38.80
2019-04-14T21:09:34.865Z,43.20
2019-04-14T21:12:17.057Z,44.60
2019-04-14T21:14:47.121Z,42.93
2019-04-14T21:17:28.931Z,40.97
2019-04-14T21:19:59.010Z,40.90
2019-04-14T21:22:38.084Z,40.97
2019-04-14T21:25:25.223Z,41.37
2019-04-14T21:28:03.923Z,43.20
2019-04-14T21:30:43.014Z,43.03
2019-04-14T21:33:22.210Z,41.30
2019-04-14T21:35:55.042Z,46.40
2019-04-14T21:38:40.071Z,39.90
2019-04-14T21:41:12.639Z,44.47
2019-04-14T21:43:41.070Z,41.07
2019-04-14T21:46:09.507Z,41.67
2019-04-14T21:48:37.987Z,41.90
2019-04-14T21:51:06.422Z,40.30
2019-04-14T21:53:34.829Z,43.10
2019-04-14T21:56:13.368Z,43.37
2019-04-14T21:58:35.029Z,43.07
2019-04-14T22:01:36.347Z,41.57
2019-04-14T22:04:22.659Z,42.13
2019-04-14T22:06:52.738Z,39.87
2019-04-14T22:09:25.429Z,40.33
2019-04-14T22:11:53.858Z,38.93
2019-04-14T22:14:22.256Z,43.57
2019-04-14T22:16:50.696Z,42.03
2019-04-14T22:19:19.477Z,39.80
2019-04-14T22:21:47.923Z,40.57
2019-04-14T22:24:16.576Z,42.03
2019-04-14T22:26:45.066Z,38.60
2019-04-14T22:29:13.466Z,40.00
2019-04-14T22:31:41.900Z,41.37
2019-04-14T22:34:10.306Z,42.80
2019-04-14T22:36:38.782Z,42.33
2019-04-14T22:39:09.032Z,39.90
2019-04-14T22:41:37.439Z,39.53
2019-04-14T22:44:05.880Z,41.37
2019-04-14T22:46:34.290Z,40.03
2019-04-14T22:49:02.719Z,40.37
2019-04-14T22:51:31.120Z,40.53
2019-04-14T22:53:59.551Z,39.67
2019-04-14T22:56:38.613Z,39.53
2019-04-14T22:58:58.108Z,40.30
2019-04-14T23:01:28.154Z,43.30
2019-04-14T23:04:16.295Z,45.10
2019-04-14T23:07:04.414Z,39.70
2019-04-14T23:09:43.548Z,39.83
2019-04-14T23:12:29.635Z,41.57
2019-04-14T23:15:02.552Z,41.00
2019-04-14T23:17:32.587Z,38.30
2019-04-14T23:20:14.341Z,43.33
2019-04-14T23:22:47.583Z,41.90
2019-04-14T23:25:16.088Z,40.67
2019-04-14T23:27:44.495Z,39.97
2019-04-14T23:30:13.068Z,38.77
2019-04-14T23:32:41.465Z,41.30
2019-04-14T23:35:09.984Z,40.70
2019-04-14T23:37:38.383Z,39.90
2019-04-14T23:40:07.973Z,37.70
2019-04-14T23:42:36.377Z,44.07
2019-04-14T23:45:07.017Z,39.27
2019-04-14T23:47:35.431Z,39.10
2019-04-14T23:50:07.991Z,40.63
2019-04-14T23:52:36.405Z,38.50
2019-04-14T23:55:06.572Z,40.43
2019-04-14T23:57:35.139Z,38.67
